Time;durP1;ratioP1;P1;durP2;ratioP2;P2;SDS_P1;SDS_P2;PMS_P1;PMS_P2;Temp;Humidity;BMP_temperature;BMP_pressure;BME280_temperature;BME280_humidity;BME280_pressure;Samples;Min_cycle;Max_cycle;Signal;HPM_P1;HPM_P2
2023/11/04 00:00:40;;;;;;;9.73;8.73;;;;;;;;;;4940267;29;20417;-43
2023/11/04 00:03:06;;;;;;;11.50;10.27;;;;;;;;;;4935245;28;20910;-44
2023/11/04 00:05:32;;;;;;;10.67;9.67;;;;;;;;;;4934092;29;20898;-43
2023/11/04 00:07:58;;;;;;;13.90;12.70;;;;;;;;;;4936306;28;20488;-43
2023/11/04 00:10:24;;;;;;;13.20;12.10;;;;;;;;;;4938167;29;20479;-43
2023/11/04 00:12:50;;;;;;;13.70;12.50;;;;;;;;;;4938535;29;20497;-44
2023/11/04 00:15:16;;;;;;;15.10;13.90;;;;;;;;;;4933872;29;20542;-45
2023/11/04 00:17:43;;;;;;;11.27;10.17;;;;;;;;;;4934067;29;20420;-43
2023/11/04 00:20:10;;;;;;;11.07;9.97;;;;;;;;;;4936418;29;20457;-44
2023/11/04 00:22:36;;;;;;;13.47;12.27;;;;;;;;;;4936169;29;20410;-44
2023/11/04 00:25:02;;;;;;;12.67;11.50;;;;;;;;;;4936752;28;20492;-44
2023/11/04 00:27:28;;;;;;;14.33;13.13;;;;;;;;;;4943111;29;20433;-44
2023/11/04 00:29:53;;;;;;;16.70;15.40;;;;;;;;;;4944594;29;20532;-45
2023/11/04 00:32:19;;;;;;;15.70;14.40;;;;;;;;;;4937628;29;20414;-44
2023/11/04 00:34:45;;;;;;;16.53;15.20;;;;;;;;;;4939506;29;20438;-43
2023/11/04 00:37:11;;;;;;;16.20;14.90;;;;;;;;;;4941267;29;20933;-43
2023/11/04 00:39:37;;;;;;;22.57;20.90;;;;;;;;;;4941249;29;20480;-43
2023/11/04 00:42:04;;;;;;;28.87;26.70;;;;;;;;;;4939269;28;20414;-43
2023/11/04 00:44:30;;;;;;;26.27;24.30;;;;;;;;;;4943086;28;20545;-44
2023/11/04 00:46:56;;;;;;;26.90;24.87;;;;;;;;;;4937267;29;20524;-43
2023/11/04 00:49:22;;;;;;;28.03;25.83;;;;;;;;;;4939418;29;20472;-43
2023/11/04 00:51:48;;;;;;;21.80;20.20;;;;;;;;;;4941076;29;20469;-44
2023/11/04 00:54:14;;;;;;;17.50;16.10;;;;;;;;;;4942235;29;20599;-44
2023/11/04 00:56:40;;;;;;;14.77;13.47;;;;;;;;;;4937021;29;20436;-43
2023/11/04 00:59:06;;;;;;;12.87;11.67;;;;;;;;;;4936942;29;20418;-43
2023/11/04 01:01:32;;;;;;;11.23;10.13;;;;;;;;;;4937162;29;20428;-43
2023/11/04 01:03:58;;;;;;;12.37;11.17;;;;;;;;;;4938834;29;20516;-44
2023/11/04 01:06:24;;;;;;;15.70;14.50;;;;;;;;;;4940542;29;20533;-44
2023/11/04 01:08:50;;;;;;;15.10;13.87;;;;;;;;;;4941211;29;20496;-44
2023/11/04 01:11:17;;;;;;;17.57;16.27;;;;;;;;;;4929096;29;20421;-43
2023/11/04 01:13:43;;;;;;;15.70;14.47;;;;;;;;;;4936542;29;20813;-43
2023/11/04 01:16:09;;;;;;;12.33;11.17;;;;;;;;;;4938732;29;20654;-43
2023/11/04 01:18:36;;;;;;;11.67;10.57;;;;;;;;;;4938680;29;20475;-44
2023/11/04 01:21:02;;;;;;;12.30;11.20;;;;;;;;;;4938611;28;20435;-43
2023/11/04 01:23:28;;;;;;;16.33;14.73;;;;;;;;;;4936377;29;20504;-43
2023/11/04 01:25:54;;;;;;;13.47;12.23;;;;;;;;;;4943268;29;20433;-44
2023/11/04 01:28:20;;;;;;;13.13;11.90;;;;;;;;;;4936481;29;20554;-43
2023/11/04 01:30:46;;;;;;;11.47;10.47;;;;;;;;;;4938517;29;20425;-44
2023/11/04 01:33:12;;;;;;;12.37;11.20;;;;;;;;;;4938697;29;20437;-44
2023/11/04 01:35:38;;;;;;;12.27;11.10;;;;;;;;;;4939305;28;20441;-44
2023/11/04 01:38:04;;;;;;;13.97;12.67;;;;;;;;;;4937563;28;20410;-44
2023/11/04 01:40:32;;;;;;;27.27;24.90;;;;;;;;;;4941904;28;20489;-44
2023/11/04 01:42:58;;;;;;;18.03;16.73;;;;;;;;;;4936396;29;20509;-44
2023/11/04 01:45:24;;;;;;;18.03;16.70;;;;;;;;;;4937878;29;20808;-43
2023/11/04 01:47:50;;;;;;;17.87;16.57;;;;;;;;;;4939640;29;20924;-43
2023/11/04 01:50:16;;;;;;;17.27;15.97;;;;;;;;;;4933373;29;20477;-43
2023/11/04 01:52:43;;;;;;;15.07;13.80;;;;;;;;;;4936152;29;20505;-44
2023/11/04 01:55:10;;;;;;;20.20;18.70;;;;;;;;;;4935700;29;20550;-44
2023/11/04 01:57:36;;;;;;;16.37;15.17;;;;;;;;;;4935979;29;20875;-44
2023/11/04 02:00:04;;;;;;;15.67;14.47;;;;;;;;;;4934742;29;20518;-44
2023/11/04 02:02:32;;;;;;;20.90;19.40;;;;;;;;;;4938029;29;20426;-44
2023/11/04 02:04:58;;;;;;;15.37;14.07;;;;;;;;;;4938453;29;20448;-44
2023/11/04 02:07:25;;;;;;;35.57;32.67;;;;;;;;;;4935773;29;20836;-44
2023/11/04 02:09:51;;;;;;;30.80;28.50;;;;;;;;;;4935141;29;20473;-43
2023/11/04 02:12:18;;;;;;;38.37;35.07;;;;;;;;;;4935563;29;20970;-44
2023/11/04 02:14:53;;;;;;;36.67;33.67;;;;;;;;;;4935513;29;20430;-43
2023/11/04 02:17:20;;;;;;;18.00;16.60;;;;;;;;;;4929803;29;20965;-44
2023/11/04 02:19:46;;;;;;;39.73;36.00;;;;;;;;;;4935732;29;20450;-43
2023/11/04 02:22:15;;;;;;;38.27;35.17;;;;;;;;;;4935422;29;20813;-44
2023/11/04 02:24:41;;;;;;;26.83;24.70;;;;;;;;;;4935322;29;20485;-44
2023/11/04 02:27:07;;;;;;;43.10;39.20;;;;;;;;;;4935444;29;20429;-43
2023/11/04 02:29:33;;;;;;;17.43;16.07;;;;;;;;;;4935477;29;20462;-43
2023/11/04 02:31:59;;;;;;;18.00;16.60;;;;;;;;;;4927553;29;20411;-43
2023/11/04 02:34:25;;;;;;;43.80;39.67;;;;;;;;;;4927224;29;20432;-44
2023/11/04 02:36:51;;;;;;;27.87;25.63;;;;;;;;;;4933923;29;20426;-44
2023/11/04 02:39:18;;;;;;;43.43;39.37;;;;;;;;;;4941621;29;20422;-44
2023/11/04 02:41:44;;;;;;;40.97;37.47;;;;;;;;;;4935407;29;20509;-44
2023/11/04 02:44:10;;;;;;;48.60;43.27;;;;;;;;;;4934922;29;20473;-44
2023/11/04 02:46:37;;;;;;;54.83;46.20;;;;;;;;;;4935124;29;20419;-44
2023/11/04 02:49:03;;;;;;;36.33;33.13;;;;;;;;;;4934810;29;21153;-44
2023/11/04 02:51:29;;;;;;;19.60;18.10;;;;;;;;;;4935092;29;20871;-44
2023/11/04 02:53:55;;;;;;;20.30;18.80;;;;;;;;;;4941032;29;20466;-44
2023/11/04 02:56:21;;;;;;;16.70;15.40;;;;;;;;;;4934978;29;20403;-44
2023/11/04 02:58:48;;;;;;;13.40;12.27;;;;;;;;;;4927591;29;20823;-44
2023/11/04 03:01:14;;;;;;;12.97;11.83;;;;;;;;;;4937581;29;20912;-44
2023/11/04 03:03:40;;;;;;;13.47;12.27;;;;;;;;;;4934511;29;20427;-44
2023/11/04 03:06:05;;;;;;;11.50;10.50;;;;;;;;;;4934640;29;20419;-44
2023/11/04 03:08:31;;;;;;;12.60;11.50;;;;;;;;;;4935011;29;20422;-44
2023/11/04 03:10:57;;;;;;;12.07;10.97;;;;;;;;;;4934778;29;20450;-44
2023/11/04 03:13:23;;;;;;;12.40;11.03;;;;;;;;;;4926607;29;20438;-44
2023/11/04 03:15:49;;;;;;;11.20;10.10;;;;;;;;;;4927066;29;20465;-44
2023/11/04 03:18:15;;;;;;;13.47;12.17;;;;;;;;;;4931571;29;20447;-44
2023/11/04 03:20:41;;;;;;;11.57;10.40;;;;;;;;;;4934150;28;20438;-43
2023/11/04 03:23:07;;;;;;;11.03;10.03;;;;;;;;;;4934472;29;20410;-43
2023/11/04 03:25:33;;;;;;;11.03;10.03;;;;;;;;;;4938064;29;20438;-43
2023/11/04 03:28:00;;;;;;;12.43;11.23;;;;;;;;;;4935099;29;20418;-44
2023/11/04 03:30:26;;;;;;;11.57;10.47;;;;;;;;;;4928695;29;20468;-43
2023/11/04 03:32:52;;;;;;;11.33;10.23;;;;;;;;;;4938140;29;20488;-43
2023/11/04 03:35:18;;;;;;;10.60;9.60;;;;;;;;;;4935350;29;20513;-44
2023/11/04 03:37:44;;;;;;;10.83;9.83;;;;;;;;;;4938512;28;20411;-44
2023/11/04 03:40:10;;;;;;;12.37;11.27;;;;;;;;;;4934403;29;20422;-44
2023/11/04 03:42:38;;;;;;;11.73;10.63;;;;;;;;;;4934346;29;20426;-43
2023/11/04 03:45:06;;;;;;;10.83;9.80;;;;;;;;;;4936124;29;20435;-44
2023/11/04 03:47:32;;;;;;;11.93;10.77;;;;;;;;;;4937830;29;20415;-43
2023/11/04 03:49:58;;;;;;;12.67;11.47;;;;;;;;;;4939563;29;20468;-44
2023/11/04 03:52:25;;;;;;;11.57;10.57;;;;;;;;;;4937648;29;20416;-44
2023/11/04 03:54:51;;;;;;;10.87;9.93;;;;;;;;;;4937181;28;20423;-44
2023/11/04 03:57:17;;;;;;;12.33;11.23;;;;;;;;;;4934429;29;20799;-43
2023/11/04 03:59:43;;;;;;;13.53;12.33;;;;;;;;;;4935058;29;20939;-44
2023/11/04 04:02:09;;;;;;;15.60;14.20;;;;;;;;;;4941616;29;20418;-44
2023/11/04 04:04:35;;;;;;;11.80;10.80;;;;;;;;;;4943042;29;20470;-44
2023/11/04 04:07:01;;;;;;;10.93;9.93;;;;;;;;;;4944605;29;20524;-43
2023/11/04 04:09:27;;;;;;;11.83;10.73;;;;;;;;;;4937924;29;21081;-43
2023/11/04 04:11:54;;;;;;;13.13;11.90;;;;;;;;;;4939976;29;20407;-44
2023/11/04 04:14:19;;;;;;;11.93;10.83;;;;;;;;;;4937723;29;20432;-44
2023/11/04 04:16:46;;;;;;;12.33;11.17;;;;;;;;;;4937732;29;20418;-43
2023/11/04 04:19:12;;;;;;;10.77;9.87;;;;;;;;;;4937738;29;20422;-43
2023/11/04 04:21:38;;;;;;;12.73;11.60;;;;;;;;;;4944756;28;20505;-44
2023/11/04 04:24:06;;;;;;;12.10;11.00;;;;;;;;;;4937348;29;20544;-44
2023/11/04 04:26:32;;;;;;;12.20;11.20;;;;;;;;;;4939551;29;20961;-43
2023/11/04 04:28:58;;;;;;;12.83;11.67;;;;;;;;;;4941055;29;20555;-43
2023/11/04 04:31:24;;;;;;;11.87;10.67;;;;;;;;;;4939151;29;20887;-44
2023/11/04 04:33:50;;;;;;;11.10;10.03;;;;;;;;;;4940945;28;20951;-43
2023/11/04 04:36:16;;;;;;;12.67;11.50;;;;;;;;;;4944146;29;20414;-44
2023/11/04 04:38:42;;;;;;;13.10;11.90;;;;;;;;;;4937369;29;20509;-43
2023/11/04 04:41:08;;;;;;;10.50;9.50;;;;;;;;;;4939348;29;20418;-43
2023/11/04 04:43:35;;;;;;;12.80;11.50;;;;;;;;;;4940532;29;20553;-43
2023/11/04 04:46:02;;;;;;;12.90;11.73;;;;;;;;;;4942299;29;20529;-44
2023/11/04 04:48:30;;;;;;;13.00;11.80;;;;;;;;;;4941041;29;20424;-43
2023/11/04 04:50:55;;;;;;;12.23;11.13;;;;;;;;;;4939776;28;20413;-43
2023/11/04 04:53:21;;;;;;;13.70;12.30;;;;;;;;;;4937003;29;20410;-43
2023/11/04 04:55:47;;;;;;;12.23;11.03;;;;;;;;;;4938990;29;20449;-44
2023/11/04 04:58:14;;;;;;;12.53;11.33;;;;;;;;;;4936963;29;20419;-43
2023/11/04 05:00:40;;;;;;;13.50;12.23;;;;;;;;;;4938648;29;20486;-44
2023/11/04 05:03:05;;;;;;;11.10;10.10;;;;;;;;;;4937013;29;20422;-44
2023/11/04 05:05:34;;;;;;;11.33;10.33;;;;;;;;;;4936813;29;20447;-45
2023/11/04 05:08:18;;;;;;;10.23;9.23;;;;;;;;;;4931041;29;20414;-43
2023/11/04 05:10:44;;;;;;;10.67;9.57;;;;;;;;;;4938893;29;20469;-44
2023/11/04 05:13:10;;;;;;;10.57;9.57;;;;;;;;;;4937481;28;20403;-45
2023/11/04 05:15:36;;;;;;;9.90;8.90;;;;;;;;;;4949340;29;20522;-44
2023/11/04 05:18:02;;;;;;;9.60;8.70;;;;;;;;;;4936853;29;20501;-43
2023/11/04 05:20:28;;;;;;;10.03;9.03;;;;;;;;;;4936776;29;20407;-43
2023/11/04 05:22:54;;;;;;;9.93;8.90;;;;;;;;;;4936604;29;20413;-44
2023/11/04 05:25:20;;;;;;;10.73;9.63;;;;;;;;;;4940707;29;20923;-44
2023/11/04 05:27:46;;;;;;;10.50;9.50;;;;;;;;;;4936747;29;20887;-44
2023/11/04 05:30:12;;;;;;;11.47;10.37;;;;;;;;;;4936487;29;20990;-44
2023/11/04 05:32:38;;;;;;;10.03;9.03;;;;;;;;;;4930352;29;20859;-44
2023/11/04 05:35:06;;;;;;;11.57;10.47;;;;;;;;;;4932890;29;20513;-44
2023/11/04 05:37:33;;;;;;;10.27;9.27;;;;;;;;;;4930800;29;20473;-44
2023/11/04 05:40:03;;;;;;;11.90;10.77;;;;;;;;;;4928471;29;20435;-43
2023/11/04 05:42:30;;;;;;;11.30;10.20;;;;;;;;;;4936392;29;20414;-44
2023/11/04 05:44:57;;;;;;;9.77;8.67;;;;;;;;;;4943563;29;20445;-44
2023/11/04 05:47:23;;;;;;;11.07;10.03;;;;;;;;;;4928383;29;20539;-44
2023/11/04 05:49:49;;;;;;;10.80;9.70;;;;;;;;;;4928362;29;20472;-44
2023/11/04 05:52:18;;;;;;;10.27;9.27;;;;;;;;;;4936164;29;20415;-44
2023/11/04 05:54:44;;;;;;;11.77;10.67;;;;;;;;;;4935778;29;20442;-44
2023/11/04 05:57:10;;;;;;;11.10;10.00;;;;;;;;;;4936019;29;20469;-44
2023/11/04 05:59:36;;;;;;;10.47;9.43;;;;;;;;;;4936136;29;20505;-43
2023/11/04 06:02:02;;;;;;;10.00;8.93;;;;;;;;;;4935914;29;20423;-44
2023/11/04 06:07:33;;;;;;;9.30;8.40;;;;;;;;;;4935737;29;20433;-44
2023/11/04 06:09:59;;;;;;;9.07;8.03;;;;;;;;;;4935680;29;20959;-44
2023/11/04 06:12:24;;;;;;;9.13;8.20;;;;;;;;;;4935812;28;20564;-44
2023/11/04 06:14:50;;;;;;;10.97;9.87;;;;;;;;;;4927672;29;20448;-44
2023/11/04 06:17:16;;;;;;;11.60;10.50;;;;;;;;;;4935711;29;20411;-44
2023/11/04 06:19:42;;;;;;;9.33;8.43;;;;;;;;;;4935516;29;20442;-44
2023/11/04 06:22:08;;;;;;;10.67;9.67;;;;;;;;;;4935267;29;20835;-44
2023/11/04 06:24:38;;;;;;;9.33;8.20;;;;;;;;;;4935219;29;20845;-44
2023/11/04 06:27:04;;;;;;;9.57;8.10;;;;;;;;;;4935398;29;20787;-43
2023/11/04 06:29:30;;;;;;;8.57;7.67;;;;;;;;;;4935426;29;20465;-45
2023/11/04 06:31:56;;;;;;;10.50;9.40;;;;;;;;;;4935400;29;20808;-44
2023/11/04 06:34:22;;;;;;;9.77;8.13;;;;;;;;;;4934942;29;20427;-44
2023/11/04 06:36:48;;;;;;;9.87;8.77;;;;;;;;;;4935323;29;20407;-43
2023/11/04 06:39:14;;;;;;;8.83;7.93;;;;;;;;;;4934458;29;20526;-44
2023/11/04 06:41:40;;;;;;;9.03;7.70;;;;;;;;;;4935452;29;20415;-44
2023/11/04 06:44:06;;;;;;;8.93;7.77;;;;;;;;;;4935140;29;20525;-44
2023/11/04 06:46:32;;;;;;;9.93;8.00;;;;;;;;;;4934848;29;20946;-43
2023/11/04 06:48:59;;;;;;;9.03;7.77;;;;;;;;;;4926998;29;20467;-44
2023/11/04 06:51:25;;;;;;;8.57;7.30;;;;;;;;;;4930617;29;20776;-44
2023/11/04 06:53:51;;;;;;;9.77;8.20;;;;;;;;;;4931476;29;20435;-44
2023/11/04 06:56:18;;;;;;;8.87;7.97;;;;;;;;;;4928614;29;20418;-44
2023/11/04 06:58:44;;;;;;;8.97;7.50;;;;;;;;;;4936683;29;20466;-44
2023/11/04 07:01:14;;;;;;;9.10;8.03;;;;;;;;;;4935626;28;20407;-44
2023/11/04 07:03:40;;;;;;;10.17;9.07;;;;;;;;;;4926639;29;20414;-43
2023/11/04 07:06:12;;;;;;;9.67;8.67;;;;;;;;;;4934430;29;20836;-43
2023/11/04 07:08:38;;;;;;;10.77;9.73;;;;;;;;;;4934740;29;20481;-44
2023/11/04 07:11:04;;;;;;;12.30;11.17;;;;;;;;;;4930507;29;20429;-43
2023/11/04 07:13:30;;;;;;;12.80;11.50;;;;;;;;;;4934133;29;20486;-44
2023/11/04 07:15:57;;;;;;;13.10;11.57;;;;;;;;;;4934274;29;20497;-44
2023/11/04 07:18:23;;;;;;;12.13;10.20;;;;;;;;;;4933948;29;20949;-44
2023/11/04 07:20:50;;;;;;;11.80;9.90;;;;;;;;;;4932886;29;20446;-44
2023/11/04 07:23:17;;;;;;;11.23;9.50;;;;;;;;;;4939858;29;20504;-43
2023/11/04 07:25:44;;;;;;;12.50;11.27;;;;;;;;;;4933854;29;20817;-43
2023/11/04 07:28:10;;;;;;;11.10;10.10;;;;;;;;;;4934452;29;20442;-43
2023/11/04 07:30:36;;;;;;;10.50;9.43;;;;;;;;;;4934460;29;20519;-44
2023/11/04 07:33:02;;;;;;;11.27;10.17;;;;;;;;;;4934466;29;20418;-43
2023/11/04 07:35:28;;;;;;;10.50;9.40;;;;;;;;;;4934405;29;20855;-44
2023/11/04 07:37:56;;;;;;;12.30;11.17;;;;;;;;;;4933932;29;20410;-44
2023/11/04 07:40:23;;;;;;;10.83;9.73;;;;;;;;;;4927569;29;20411;-43
2023/11/04 07:42:50;;;;;;;12.97;11.67;;;;;;;;;;4926381;29;20453;-44
2023/11/04 07:45:15;;;;;;;11.50;10.33;;;;;;;;;;4930177;29;21012;-44
2023/11/04 07:47:43;;;;;;;11.87;10.80;;;;;;;;;;4939760;29;20426;-44
2023/11/04 07:50:12;;;;;;;11.63;10.47;;;;;;;;;;4934390;29;20813;-44
2023/11/04 07:52:41;;;;;;;10.27;9.27;;;;;;;;;;4928063;29;20419;-44
2023/11/04 07:55:08;;;;;;;10.60;9.60;;;;;;;;;;4930741;29;20434;-43
2023/11/04 07:57:35;;;;;;;10.70;9.70;;;;;;;;;;4928871;29;20494;-43
2023/11/04 08:00:04;;;;;;;10.37;9.20;;;;;;;;;;4926249;29;20867;-43
2023/11/04 08:02:31;;;;;;;12.33;11.13;;;;;;;;;;4934173;29;20422;-44
2023/11/04 08:04:59;;;;;;;11.20;10.20;;;;;;;;;;4933953;29;20449;-44
2023/11/04 08:07:25;;;;;;;12.37;11.27;;;;;;;;;;4926995;29;20978;-44
2023/11/04 08:09:51;;;;;;;11.60;10.50;;;;;;;;;;4926237;29;20459;-44
2023/11/04 08:12:17;;;;;;;12.10;11.00;;;;;;;;;;4930671;29;20418;-43
2023/11/04 08:14:43;;;;;;;13.20;12.03;;;;;;;;;;4929690;29;20430;-43
2023/11/04 08:17:09;;;;;;;15.83;14.50;;;;;;;;;;4926126;29;20489;-44
2023/11/04 08:19:35;;;;;;;13.27;12.23;;;;;;;;;;4926466;29;20491;-44
2023/11/04 08:22:01;;;;;;;12.27;11.17;;;;;;;;;;4934693;29;20421;-44
2023/11/04 08:24:27;;;;;;;14.73;13.60;;;;;;;;;;4934258;29;20993;-43
2023/11/04 08:26:53;;;;;;;14.80;13.60;;;;;;;;;;4933818;29;20419;-45
2023/11/04 08:29:19;;;;;;;16.03;14.87;;;;;;;;;;4934043;29;20467;-43
2023/11/04 08:31:45;;;;;;;15.60;14.50;;;;;;;;;;4934067;29;20906;-45
2023/11/04 08:34:12;;;;;;;14.83;13.73;;;;;;;;;;4930907;29;20435;-43
2023/11/04 08:36:38;;;;;;;14.07;12.87;;;;;;;;;;4929076;29;20410;-45
2023/11/04 08:39:04;;;;;;;14.10;12.90;;;;;;;;;;4926131;29;20415;-45
2023/11/04 08:41:30;;;;;;;15.37;13.97;;;;;;;;;;4925867;29;20510;-43
2023/11/04 08:43:55;;;;;;;13.70;12.50;;;;;;;;;;4925607;29;20519;-44
2023/11/04 08:46:21;;;;;;;13.23;12.13;;;;;;;;;;4935460;29;20419;-44
2023/11/04 08:48:47;;;;;;;13.67;12.47;;;;;;;;;;4930160;29;20419;-44
2023/11/04 08:51:13;;;;;;;13.93;12.83;;;;;;;;;;4934235;29;20502;-43
2023/11/04 08:53:39;;;;;;;14.97;13.77;;;;;;;;;;4932337;29;20823;-43
2023/11/04 08:56:08;;;;;;;14.70;13.50;;;;;;;;;;4929277;29;20400;-45
2023/11/04 08:58:35;;;;;;;15.20;14.00;;;;;;;;;;4937208;29;20410;-43
2023/11/04 09:01:02;;;;;;;15.73;14.50;;;;;;;;;;4937020;29;20469;-44
2023/11/04 09:03:27;;;;;;;17.83;16.23;;;;;;;;;;4936652;29;20410;-44
2023/11/04 09:05:53;;;;;;;15.00;13.83;;;;;;;;;;4936945;29;20416;-43
2023/11/04 09:08:20;;;;;;;15.10;13.90;;;;;;;;;;4937068;29;20421;-46
2023/11/04 09:10:47;;;;;;;14.70;13.53;;;;;;;;;;4936958;29;21017;-44
2023/11/04 09:13:13;;;;;;;17.37;15.70;;;;;;;;;;4938577;29;20498;-45
2023/11/04 09:15:39;;;;;;;16.93;15.70;;;;;;;;;;4941511;28;20432;-44
2023/11/04 09:18:06;;;;;;;16.40;15.10;;;;;;;;;;4928860;29;20440;-44
2023/11/04 09:20:32;;;;;;;14.97;13.87;;;;;;;;;;4929125;29;20473;-45
2023/11/04 09:22:58;;;;;;;15.40;14.20;;;;;;;;;;4928801;29;20828;-45
2023/11/04 09:25:24;;;;;;;15.60;14.50;;;;;;;;;;4931985;29;20439;-44
2023/11/04 09:27:51;;;;;;;15.20;14.00;;;;;;;;;;4933375;29;20766;-44
2023/11/04 09:30:17;;;;;;;16.93;15.70;;;;;;;;;;4941797;29;20956;-45
2023/11/04 09:32:43;;;;;;;17.13;15.73;;;;;;;;;;4936512;29;20416;-44
2023/11/04 09:35:12;;;;;;;14.90;13.80;;;;;;;;;;4936473;29;20426;-44
2023/11/04 09:37:40;;;;;;;16.97;15.77;;;;;;;;;;4936490;29;20419;-44
2023/11/04 09:40:07;;;;;;;17.10;15.80;;;;;;;;;;4951659;29;20498;-44
2023/11/04 09:42:34;;;;;;;21.63;20.13;;;;;;;;;;4955207;28;20881;-45
2023/11/04 09:45:00;;;;;;;18.00;16.70;;;;;;;;;;4955140;28;20436;-45
2023/11/04 09:47:28;;;;;;;23.50;21.97;;;;;;;;;;4955406;28;21210;-45
2023/11/04 09:49:54;;;;;;;20.70;19.30;;;;;;;;;;4938317;28;20467;-44
2023/11/04 09:52:20;;;;;;;22.37;20.80;;;;;;;;;;4928387;29;20410;-44
2023/11/04 09:54:48;;;;;;;16.90;15.70;;;;;;;;;;4935012;29;20436;-45
2023/11/04 09:57:14;;;;;;;16.43;15.23;;;;;;;;;;4941538;29;20504;-44
2023/11/04 09:59:41;;;;;;;17.33;16.10;;;;;;;;;;4928130;29;20425;-44
2023/11/04 10:02:10;;;;;;;19.37;18.17;;;;;;;;;;4935952;29;20412;-44
2023/11/04 10:04:36;;;;;;;18.40;17.10;;;;;;;;;;4935734;29;20492;-44
2023/11/04 10:07:02;;;;;;;20.17;18.73;;;;;;;;;;4940790;29;20449;-44
2023/11/04 10:09:29;;;;;;;22.43;20.93;;;;;;;;;;4939625;29;20499;-44
2023/11/04 10:11:55;;;;;;;27.00;25.30;;;;;;;;;;4938991;28;20464;-44
2023/11/04 10:14:21;;;;;;;25.90;24.40;;;;;;;;;;4935649;29;20429;-44
2023/11/04 10:16:47;;;;;;;29.23;27.53;;;;;;;;;;4935749;29;20420;-44
2023/11/04 10:19:14;;;;;;;34.03;32.03;;;;;;;;;;4939124;29;20431;-44
2023/11/04 10:21:41;;;;;;;24.10;22.57;;;;;;;;;;4935625;29;20430;-44
2023/11/04 10:24:07;;;;;;;23.63;22.23;;;;;;;;;;4935336;29;20431;-44
2023/11/04 10:26:33;;;;;;;22.23;20.93;;;;;;;;;;4930010;29;20784;-44
2023/11/04 10:28:59;;;;;;;23.00;21.50;;;;;;;;;;4932196;29;20489;-44
2023/11/04 10:31:26;;;;;;;21.40;20.10;;;;;;;;;;4929018;29;20918;-45
2023/11/04 10:33:53;;;;;;;21.73;20.37;;;;;;;;;;4927348;29;20436;-45
2023/11/04 10:36:19;;;;;;;21.03;19.67;;;;;;;;;;4927587;29;20411;-44
2023/11/04 10:38:48;;;;;;;20.97;19.57;;;;;;;;;;4935324;29;20471;-45
2023/11/04 10:41:15;;;;;;;22.13;20.83;;;;;;;;;;4927503;29;20411;-44
2023/11/04 10:43:47;;;;;;;21.73;20.33;;;;;;;;;;4928206;29;20826;-44
2023/11/04 10:46:17;;;;;;;24.50;23.10;;;;;;;;;;4934879;29;20406;-44
2023/11/04 10:48:44;;;;;;;21.87;20.53;;;;;;;;;;4935122;29;20407;-45
2023/11/04 10:51:15;;;;;;;22.47;21.07;;;;;;;;;;4935112;29;21827;-44
2023/11/04 10:53:52;;;;;;;22.87;21.40;;;;;;;;;;4934916;29;20415;-44
2023/11/04 10:56:25;;;;;;;21.30;20.00;;;;;;;;;;4935100;29;20451;-44
2023/11/04 10:58:51;;;;;;;18.60;17.50;;;;;;;;;;4927266;29;20411;-44
2023/11/04 11:01:18;;;;;;;20.60;19.30;;;;;;;;;;4935429;29;20774;-44
2023/11/04 11:03:47;;;;;;;19.53;18.23;;;;;;;;;;4934549;29;20735;-43
2023/11/04 11:06:13;;;;;;;32.07;30.10;;;;;;;;;;4934647;29;20480;-44
2023/11/04 11:08:40;;;;;;;29.27;27.47;;;;;;;;;;4928379;29;20408;-44
2023/11/04 11:11:19;;;;;;;24.93;23.27;;;;;;;;;;4933575;29;20494;-44
2023/11/04 11:13:47;;;;;;;24.67;23.10;;;;;;;;;;4937113;29;20435;-44
2023/11/04 11:16:14;;;;;;;26.07;24.47;;;;;;;;;;4934885;28;20484;-45
2023/11/04 11:18:40;;;;;;;21.93;20.53;;;;;;;;;;4930121;29;20927;-45
2023/11/04 11:21:09;;;;;;;21.87;20.47;;;;;;;;;;4934605;29;20420;-44
2023/11/04 11:23:35;;;;;;;21.47;19.97;;;;;;;;;;4926436;29;20980;-44
2023/11/04 11:26:04;;;;;;;20.00;18.60;;;;;;;;;;4926694;29;20422;-44
2023/11/04 11:28:37;;;;;;;22.87;21.43;;;;;;;;;;4935201;29;20417;-44
2023/11/04 11:31:03;;;;;;;22.30;20.80;;;;;;;;;;4939126;29;20464;-44
2023/11/04 11:33:30;;;;;;;23.50;21.60;;;;;;;;;;4937806;29;20831;-44
2023/11/04 11:36:00;;;;;;;20.10;18.80;;;;;;;;;;4937006;28;20906;-44
2023/11/04 11:38:32;;;;;;;30.93;28.93;;;;;;;;;;4934558;29;20418;-44
2023/11/04 11:41:03;;;;;;;46.30;42.70;;;;;;;;;;4935980;29;20785;-44
2023/11/04 11:43:29;;;;;;;52.17;47.63;;;;;;;;;;4937158;29;20813;-44
2023/11/04 11:45:55;;;;;;;23.30;21.77;;;;;;;;;;4934393;29;20454;-44
2023/11/04 11:48:22;;;;;;;35.23;32.77;;;;;;;;;;4926103;29;20466;-44
2023/11/04 11:50:48;;;;;;;30.57;28.37;;;;;;;;;;4928205;29;20514;-44
2023/11/04 11:53:14;;;;;;;24.87;23.20;;;;;;;;;;4930154;29;20425;-44
2023/11/04 11:55:42;;;;;;;21.03;19.43;;;;;;;;;;4946142;29;20870;-45
2023/11/04 11:58:09;;;;;;;17.50;16.30;;;;;;;;;;4934296;29;20415;-44
2023/11/04 12:00:36;;;;;;;19.13;17.83;;;;;;;;;;4934265;29;20449;-44
2023/11/04 12:03:02;;;;;;;17.40;16.00;;;;;;;;;;4934216;29;20940;-44
2023/11/04 12:05:29;;;;;;;21.27;19.77;;;;;;;;;;4933924;29;20441;-44
2023/11/04 12:07:55;;;;;;;23.77;22.13;;;;;;;;;;4934142;29;20474;-43
2023/11/04 12:10:22;;;;;;;25.03;23.43;;;;;;;;;;4933991;29;20975;-44
2023/11/04 12:12:49;;;;;;;18.67;17.47;;;;;;;;;;4934458;29;20450;-44
2023/11/04 12:15:15;;;;;;;20.30;18.90;;;;;;;;;;4934099;29;20511;-44
2023/11/04 12:17:41;;;;;;;20.33;19.03;;;;;;;;;;4934354;29;20408;-43
2023/11/04 12:20:11;;;;;;;18.57;17.27;;;;;;;;;;4934156;29;20412;-44
2023/11/04 12:22:37;;;;;;;18.13;16.83;;;;;;;;;;4937709;29;20445;-45
2023/11/04 12:25:06;;;;;;;20.43;19.03;;;;;;;;;;4937321;29;20440;-44
2023/11/04 12:27:32;;;;;;;19.43;18.13;;;;;;;;;;4937774;29;20820;-44
2023/11/04 12:29:58;;;;;;;17.60;16.33;;;;;;;;;;4938045;29;20502;-45
2023/11/04 12:32:25;;;;;;;22.00;20.50;;;;;;;;;;4936239;29;20435;-44
2023/11/04 12:34:58;;;;;;;28.60;26.63;;;;;;;;;;4929080;29;20924;-44
2023/11/04 12:37:27;;;;;;;18.80;17.40;;;;;;;;;;4937423;29;20403;-44
2023/11/04 12:39:54;;;;;;;17.87;16.60;;;;;;;;;;4933465;29;20432;-44
2023/11/04 12:42:20;;;;;;;17.93;16.67;;;;;;;;;;4929605;29;20419;-43
2023/11/04 12:44:49;;;;;;;29.13;27.33;;;;;;;;;;4929779;29;20786;-43
2023/11/04 12:47:15;;;;;;;21.37;19.93;;;;;;;;;;4937373;29;20429;-44
2023/11/04 12:49:41;;;;;;;17.77;16.63;;;;;;;;;;4930537;29;20558;-44
2023/11/04 12:52:07;;;;;;;16.57;15.33;;;;;;;;;;4936249;29;20430;-43
2023/11/04 12:54:33;;;;;;;16.80;15.50;;;;;;;;;;4936946;29;20467;-43
2023/11/04 12:57:01;;;;;;;17.53;16.23;;;;;;;;;;4937256;29;20824;-43
2023/11/04 12:59:27;;;;;;;26.80;24.93;;;;;;;;;;4937336;29;20410;-44
2023/11/04 13:01:53;;;;;;;22.00;20.50;;;;;;;;;;4937025;29;20422;-44
2023/11/04 13:04:19;;;;;;;16.17;14.97;;;;;;;;;;4928897;29;20939;-44
2023/11/04 13:06:45;;;;;;;14.27;13.07;;;;;;;;;;4929277;29;20435;-44
2023/11/04 13:09:11;;;;;;;12.20;11.17;;;;;;;;;;4933573;29;20511;-45
2023/11/04 13:11:37;;;;;;;11.63;10.73;;;;;;;;;;4932050;29;20502;-44
2023/11/04 13:14:03;;;;;;;11.53;10.43;;;;;;;;;;4928748;29;20430;-43
2023/11/04 13:16:32;;;;;;;11.77;10.70;;;;;;;;;;4929010;29;20483;-44
2023/11/04 13:18:58;;;;;;;10.47;9.57;;;;;;;;;;4936783;29;20572;-44
2023/11/04 13:21:25;;;;;;;10.60;9.50;;;;;;;;;;4936697;29;20486;-45
2023/11/04 13:23:51;;;;;;;11.73;10.63;;;;;;;;;;4936422;29;20435;-44
2023/11/04 13:26:17;;;;;;;11.10;10.17;;;;;;;;;;4936655;29;20466;-44
2023/11/04 13:28:44;;;;;;;12.27;11.17;;;;;;;;;;4936697;29;20418;-45
2023/11/04 13:31:10;;;;;;;9.60;8.70;;;;;;;;;;4936562;29;20549;-44
2023/11/04 13:33:37;;;;;;;12.37;10.20;;;;;;;;;;4936148;29;20841;-45
2023/11/04 13:36:03;;;;;;;10.40;9.40;;;;;;;;;;4936465;29;20902;-44
2023/11/04 13:38:29;;;;;;;13.83;12.63;;;;;;;;;;4940835;29;20942;-43
2023/11/04 13:40:55;;;;;;;12.50;11.37;;;;;;;;;;4936485;29;20419;-44
2023/11/04 13:43:21;;;;;;;13.43;12.03;;;;;;;;;;4936157;29;20411;-44
2023/11/04 13:45:47;;;;;;;11.67;10.57;;;;;;;;;;4928835;29;20558;-44
2023/11/04 13:48:13;;;;;;;11.10;10.07;;;;;;;;;;4932920;29;20412;-44
2023/11/04 13:50:39;;;;;;;11.07;9.97;;;;;;;;;;4931467;29;20994;-44
2023/11/04 13:53:05;;;;;;;11.30;10.20;;;;;;;;;;4928331;29;20784;-45
2023/11/04 13:55:30;;;;;;;10.00;9.00;;;;;;;;;;4930165;29;20620;-44
2023/11/04 13:57:57;;;;;;;10.23;8.97;;;;;;;;;;4936081;29;20602;-44
2023/11/04 14:00:23;;;;;;;9.80;8.07;;;;;;;;;;4931880;29;20422;-44
2023/11/04 14:02:49;;;;;;;11.03;9.17;;;;;;;;;;4935876;29;20415;-44
2023/11/04 14:05:15;;;;;;;9.30;8.20;;;;;;;;;;4935066;29;20431;-44
2023/11/04 14:07:41;;;;;;;9.03;7.80;;;;;;;;;;4941138;29;20433;-45
2023/11/04 14:10:08;;;;;;;9.37;7.17;;;;;;;;;;4936956;28;20457;-45
2023/11/04 14:12:34;;;;;;;8.93;7.10;;;;;;;;;;4936005;29;20438;-45
2023/11/04 14:15:00;;;;;;;9.33;7.23;;;;;;;;;;4935504;29;20493;-45
2023/11/04 14:17:27;;;;;;;9.03;7.80;;;;;;;;;;4935787;29;20422;-46
2023/11/04 14:19:53;;;;;;;9.50;8.50;;;;;;;;;;4935693;29;20426;-46